Disclaimer

Please do not use the information listed here in-flight or in-navigation, as they are not provided to us by the airports but are provided by volunteers, so they might be outdated.

Search


Regions


Airport information page

Radio informations:
AUCKLAND RDO - 3467 MHz
Common traffic adv. frequency (CTAF) - 118.1 MHz

Airport informations:
Latitude: 29° 02' 29.85" S
Longitude: 167° 56' 19.47" E
Elevation: 371 feet - 113 meters
Operating hours: N/A
Operating agency: Civil government, landing fees and diplomatic clearance may be required
Timezone: UTC+11:30
Fuel: Jet A1, without icing nhibitor.

100/130 MIL Spec, low lead, aviation gasoline (BLUE)

Runway information:
04/22 - 4708 x 98 feet< - >1435 x 30 meters
11/29 - 6398 x 150 feet< - >1950 x 46 meters

Recent METARs:
YSNF 181630Z AUTO 05004KT 9999 // NCD 17/16 Q1014 RF00.0/000.0
YSNF 181700Z AUTO 05004KT 9999 // NCD 16/15 Q1014
YSNF 181800Z AUTO 05003KT 9999 // NCD 16/16 Q1015

Airport on the map: